Time;durP1;ratioP1;P1;durP2;ratioP2;P2;SDS_P1;SDS_P2;PMS_P1;PMS_P2;Temp;Humidity;BMP_temperature;BMP_pressure;BME280_temperature;BME280_humidity;BME280_pressure;Samples;Min_cycle;Max_cycle;Signal;HPM_P1;HPM_P2
2021/07/21 00:00:18;;;;;;;;;;;16.20;99.90;;;;;;5077406;28;19943;-83
2021/07/21 00:02:44;;;;;;;;;;;16.10;99.90;;;;;;5077740;28;19904;-83
2021/07/21 00:05:10;;;;;;;;;;;16.20;99.90;;;;;;5077762;28;20393;-83
2021/07/21 00:07:36;;;;;;;;;;;16.30;99.90;;;;;;5095608;28;19904;-83
2021/07/21 00:10:02;;;;;;;;;;;16.30;99.90;;;;;;5077661;28;19910;-84
2021/07/21 00:15:12;;;;;;;;;;;16.30;99.90;;;;;;5095916;28;19949;-82
2021/07/21 00:17:38;;;;;;;;;;;16.30;99.90;;;;;;5077349;28;19904;-81
2021/07/21 00:20:07;;;;;;;;;;;16.30;99.90;;;;;;5077386;28;19904;-82
2021/07/21 00:22:37;;;;;;;;;;;16.30;99.90;;;;;;5076061;28;20424;-83
2021/07/21 00:25:04;;;;;;;;;;;16.20;99.90;;;;;;5077531;28;19904;-82
2021/07/21 00:27:29;;;;;;;;;;;16.30;99.90;;;;;;5077100;28;19904;-83
2021/07/21 00:29:55;;;;;;;;;;;16.30;99.90;;;;;;5077197;28;20256;-83
2021/07/21 00:32:20;;;;;;;;;;;16.20;99.90;;;;;;5077015;28;19998;-82
2021/07/21 00:34:46;;;;;;;;;;;16.20;99.90;;;;;;5077003;28;19908;-83
2021/07/21 00:37:11;;;;;;;;;;;16.10;99.90;;;;;;5077193;28;20363;-83
2021/07/21 00:39:37;;;;;;;;;;;16.00;99.90;;;;;;5095290;28;19908;-82
2021/07/21 00:42:02;;;;;;;;;;;15.90;99.90;;;;;;5095056;28;20421;-82
2021/07/21 00:44:28;;;;;;;;;;;15.90;99.90;;;;;;5095127;28;19904;-83
2021/07/21 00:46:53;;;;;;;;;;;15.80;99.90;;;;;;5076800;28;19911;-82
2021/07/21 00:49:24;;;;;;;;;;;15.80;99.90;;;;;;5094963;28;19947;-81
2021/07/21 00:51:50;;;;;;;;;;;15.80;99.90;;;;;;5076631;28;20409;-82
2021/07/21 00:54:16;;;;;;;;;;;15.80;99.90;;;;;;5094926;28;19904;-83
2021/07/21 00:56:41;;;;;;;;;;;15.80;99.90;;;;;;5076645;28;19907;-84
2021/07/21 00:59:07;;;;;;;;;;;15.90;99.90;;;;;;5076979;28;19908;-82
2021/07/21 01:01:34;;;;;;;;;;;16.00;99.90;;;;;;5076742;28;19911;-83
2021/07/21 01:04:01;;;;;;;;;;;16.00;99.90;;;;;;5094576;28;19943;-84
2021/07/21 01:06:27;;;;;;;;;;;16.00;99.90;;;;;;5076448;28;19904;-83
2021/07/21 01:08:52;;;;;;;;;;;15.90;99.90;;;;;;5076236;28;19904;-83
2021/07/21 01:11:31;;;;;;;;;;;15.90;99.90;;;;;;5076252;28;19908;-83
2021/07/21 01:14:01;;;;;;;;;;;15.80;99.90;;;;;;5076360;28;19904;-83
2021/07/21 01:16:27;;;;;;;;;;;15.80;99.90;;;;;;5076297;28;19911;-83
2021/07/21 01:19:01;;;;;;;;;;;15.80;99.90;;;;;;5077111;28;19986;-81
2021/07/21 01:21:27;;;;;;;;;;;15.70;99.90;;;;;;5077316;28;20042;-84
2021/07/21 01:23:55;;;;;;;;;;;15.70;99.90;;;;;;5094475;28;19951;-82
2021/07/21 01:26:26;;;;;;;;;;;15.70;99.90;;;;;;5076210;28;20325;-82
2021/07/21 01:28:53;;;;;;;;;;;15.60;99.90;;;;;;5094517;28;19904;-84
2021/07/21 01:31:22;;;;;;;;;;;15.50;99.90;;;;;;5076402;28;19904;-82
2021/07/21 01:33:48;;;;;;;;;;;15.50;99.90;;;;;;5075186;28;19954;-82
2021/07/21 01:36:15;;;;;;;;;;;15.50;99.90;;;;;;5094441;28;20321;-82
2021/07/21 01:38:43;;;;;;;;;;;15.50;99.90;;;;;;5076645;28;19949;-81
2021/07/21 01:41:20;;;;;;;;;;;15.40;99.90;;;;;;5076946;28;19904;-83
2021/07/21 01:43:47;;;;;;;;;;;15.40;99.90;;;;;;5076591;28;19904;-84
2021/07/21 01:46:13;;;;;;;;;;;15.40;99.90;;;;;;5076528;28;19916;-84
2021/07/21 01:48:40;;;;;;;;;;;15.30;99.90;;;;;;5094111;28;19908;-82
2021/07/21 01:51:07;;;;;;;;;;;15.20;99.90;;;;;;5094409;28;19911;-82
2021/07/21 01:53:33;;;;;;;;;;;15.20;99.90;;;;;;5076262;28;19908;-82
2021/07/21 01:56:00;;;;;;;;;;;15.20;99.90;;;;;;5076859;28;20091;-83
2021/07/21 01:58:25;;;;;;;;;;;15.20;99.90;;;;;;5077695;28;19904;-82
2021/07/21 02:00:51;;;;;;;;;;;15.20;99.90;;;;;;5077863;28;20371;-83
2021/07/21 02:03:18;;;;;;;;;;;15.10;99.90;;;;;;5080116;28;19912;-83
2021/07/21 02:05:45;;;;;;;;;;;15.10;99.90;;;;;;5079043;28;19904;-83
2021/07/21 02:08:11;;;;;;;;;;;15.20;99.90;;;;;;5096144;28;19950;-82
2021/07/21 02:13:40;;;;;;;;;;;15.20;99.90;;;;;;5094701;28;19911;-83
2021/07/21 02:16:06;;;;;;;;;;;15.30;99.90;;;;;;5094877;28;19908;-82
2021/07/21 02:21:39;;;;;;;;;;;15.30;99.90;;;;;;5093497;28;20450;-84
2021/07/21 02:24:06;;;;;;;;;;;15.30;99.90;;;;;;5075856;28;19912;-82
2021/07/21 02:26:34;;;;;;;;;;;15.30;99.90;;;;;;5077000;28;19910;-83
2021/07/21 02:29:00;;;;;;;;;;;15.10;99.90;;;;;;5077833;28;20027;-83
2021/07/21 02:31:31;;;;;;;;;;;15.10;99.90;;;;;;5075644;28;19959;-81
2021/07/21 02:34:02;;;;;;;;;;;15.10;99.90;;;;;;5075943;28;20358;-83
2021/07/21 02:36:28;;;;;;;;;;;15.20;99.90;;;;;;5075302;28;19939;-82
2021/07/21 02:38:53;;;;;;;;;;;15.10;99.90;;;;;;5076163;28;20366;-82
2021/07/21 02:41:19;;;;;;;;;;;15.10;99.90;;;;;;5074855;28;19998;-82
2021/07/21 02:43:44;;;;;;;;;;;15.10;99.90;;;;;;5074632;28;19904;-82
2021/07/21 02:46:10;;;;;;;;;;;15.10;99.90;;;;;;5074540;28;20011;-82
2021/07/21 02:48:36;;;;;;;;;;;15.10;99.90;;;;;;5075025;28;19904;-83
2021/07/21 02:51:04;;;;;;;;;;;15.10;99.90;;;;;;5074973;28;19935;-82
2021/07/21 02:53:34;;;;;;;;;;;15.20;99.90;;;;;;5074754;28;20135;-82
2021/07/21 02:56:05;;;;;;;;;;;15.20;99.90;;;;;;5074526;28;19915;-81
2021/07/21 02:58:45;;;;;;;;;;;15.20;99.90;;;;;;5075237;28;19908;-82
2021/07/21 03:01:13;;;;;;;;;;;15.20;99.90;;;;;;5075552;28;20006;-83
2021/07/21 03:03:41;;;;;;;;;;;15.10;99.90;;;;;;5075780;28;20018;-81
2021/07/21 03:06:07;;;;;;;;;;;15.00;99.90;;;;;;5075379;28;19911;-81
2021/07/21 03:08:33;;;;;;;;;;;15.00;99.90;;;;;;5075901;28;19994;-81
2021/07/21 03:11:00;;;;;;;;;;;15.00;99.90;;;;;;5075874;28;20248;-82
2021/07/21 03:13:29;;;;;;;;;;;15.10;99.90;;;;;;5075665;28;19908;-81
2021/07/21 03:15:55;;;;;;;;;;;15.00;99.90;;;;;;5076015;28;19915;-81
2021/07/21 03:18:24;;;;;;;;;;;14.90;99.90;;;;;;5076220;28;19911;-82
2021/07/21 03:20:53;;;;;;;;;;;14.80;99.90;;;;;;5076202;28;19962;-82
2021/07/21 03:23:18;;;;;;;;;;;14.90;99.90;;;;;;5075524;28;19908;-82
2021/07/21 03:25:44;;;;;;;;;;;15.00;99.90;;;;;;5075819;28;20323;-82
2021/07/21 03:28:10;;;;;;;;;;;14.90;99.90;;;;;;5074638;28;19908;-82
2021/07/21 03:30:36;;;;;;;;;;;14.90;99.90;;;;;;5074826;28;19927;-81
2021/07/21 03:33:03;;;;;;;;;;;14.80;99.90;;;;;;5075079;28;19949;-83
2021/07/21 03:35:30;;;;;;;;;;;14.80;99.90;;;;;;5074694;28;19955;-83
2021/07/21 03:37:57;;;;;;;;;;;14.80;99.90;;;;;;5074162;28;20287;-83
2021/07/21 03:40:23;;;;;;;;;;;14.90;99.90;;;;;;5074531;28;19904;-83
2021/07/21 03:42:50;;;;;;;;;;;14.90;99.90;;;;;;5074155;28;19915;-81
2021/07/21 03:45:16;;;;;;;;;;;14.80;99.90;;;;;;5074077;28;19904;-81
2021/07/21 03:47:42;;;;;;;;;;;14.80;99.90;;;;;;5092505;28;19904;-82
2021/07/21 03:50:08;;;;;;;;;;;14.70;99.90;;;;;;5075210;28;19923;-82
2021/07/21 03:52:34;;;;;;;;;;;14.70;99.90;;;;;;5074203;28;19991;-83
2021/07/21 03:55:01;;;;;;;;;;;14.70;99.90;;;;;;5074356;28;19970;-81
2021/07/21 03:57:27;;;;;;;;;;;14.70;99.90;;;;;;5077842;28;19914;-82
2021/07/21 03:59:53;;;;;;;;;;;14.80;99.90;;;;;;5096146;28;19904;-82
2021/07/21 04:02:19;;;;;;;;;;;14.70;99.90;;;;;;5077582;28;19951;-83
2021/07/21 04:04:45;;;;;;;;;;;14.80;99.90;;;;;;5077720;28;20279;-83
2021/07/21 04:07:12;;;;;;;;;;;14.80;99.90;;;;;;5077798;28;20325;-83
2021/07/21 04:09:38;;;;;;;;;;;14.70;99.90;;;;;;5077671;28;20380;-83
2021/07/21 04:12:04;;;;;;;;;;;14.60;99.90;;;;;;5077685;28;19999;-83
2021/07/21 04:14:30;;;;;;;;;;;14.70;99.90;;;;;;5078228;28;19904;-83
2021/07/21 04:16:56;;;;;;;;;;;14.70;99.90;;;;;;5077363;28;19908;-83
2021/07/21 04:19:22;;;;;;;;;;;14.70;99.90;;;;;;5077375;28;19912;-83
2021/07/21 04:21:48;;;;;;;;;;;14.80;99.90;;;;;;5076738;28;19935;-82
2021/07/21 04:24:14;;;;;;;;;;;14.80;99.90;;;;;;5077398;28;20351;-82
2021/07/21 04:26:40;;;;;;;;;;;14.80;99.90;;;;;;5078839;28;19911;-82
2021/07/21 04:29:09;;;;;;;;;;;14.80;99.90;;;;;;5097750;28;19903;-82
2021/07/21 04:31:37;;;;;;;;;;;14.90;99.90;;;;;;5116834;28;19904;-81
2021/07/21 04:34:03;;;;;;;;;;;15.00;99.90;;;;;;5098067;28;19908;-82
2021/07/21 04:36:28;;;;;;;;;;;15.10;99.90;;;;;;5097170;28;19911;-83
2021/07/21 04:38:54;;;;;;;;;;;15.10;99.90;;;;;;5098357;28;19933;-81
2021/07/21 04:41:21;;;;;;;;;;;15.20;99.90;;;;;;5097257;28;19904;-83
2021/07/21 04:50:20;;;;;;;;;;;15.40;99.90;;;;;;5097871;28;19930;-84
2021/07/21 04:52:47;;;;;;;;;;;15.40;99.90;;;;;;5076212;28;19904;-84
2021/07/21 04:55:13;;;;;;;;;;;15.50;99.90;;;;;;5086886;28;19903;-84
2021/07/21 04:57:38;;;;;;;;;;;15.50;99.90;;;;;;5111611;28;19938;-81
2021/07/21 05:00:05;;;;;;;;;;;15.50;99.90;;;;;;5095415;28;19947;-84
2021/07/21 05:02:30;;;;;;;;;;;15.60;99.90;;;;;;5106427;28;19908;-81
2021/07/21 05:04:56;;;;;;;;;;;15.60;99.90;;;;;;5104289;28;19903;-81
2021/07/21 05:07:21;;;;;;;;;;;15.80;99.90;;;;;;5090537;28;20002;-84
2021/07/21 05:09:47;;;;;;;;;;;15.90;99.90;;;;;;5097141;28;20278;-83
2021/07/21 05:12:12;;;;;;;;;;;16.00;99.90;;;;;;5114631;28;20004;-84
2021/07/21 05:14:38;;;;;;;;;;;16.00;99.90;;;;;;5097311;28;20310;-83
2021/07/21 05:17:03;;;;;;;;;;;16.20;99.90;;;;;;5111905;28;19980;-83
2021/07/21 05:19:29;;;;;;;;;;;16.30;99.90;;;;;;5103869;28;20275;-83
2021/07/21 05:21:54;;;;;;;;;;;16.40;99.90;;;;;;5086500;28;20070;-84
2021/07/21 05:24:20;;;;;;;;;;;16.50;99.90;;;;;;5087522;28;19911;-84
2021/07/21 05:26:47;;;;;;;;;;;16.50;99.90;;;;;;5087087;28;19911;-86
2021/07/21 05:29:13;;;;;;;;;;;16.70;99.90;;;;;;5085853;28;20267;-85
2021/07/21 05:31:38;;;;;;;;;;;16.70;99.90;;;;;;5084303;28;19911;-83
2021/07/21 05:34:04;;;;;;;;;;;16.90;99.90;;;;;;5085689;28;19904;-84
2021/07/21 05:36:35;;;;;;;;;;;17.00;99.90;;;;;;5083542;28;20008;-85
2021/07/21 05:39:02;;;;;;;;;;;17.10;99.90;;;;;;5082199;28;19951;-84
2021/07/21 05:41:27;;;;;;;;;;;17.30;99.90;;;;;;5083859;28;20298;-85
2021/07/21 05:43:53;;;;;;;;;;;17.20;99.90;;;;;;5084243;28;19910;-83
2021/07/21 05:46:18;;;;;;;;;;;17.30;99.90;;;;;;5093022;28;19955;-83
2021/07/21 05:48:44;;;;;;;;;;;17.50;99.90;;;;;;5080127;28;20321;-83
2021/07/21 05:51:09;;;;;;;;;;;17.80;99.90;;;;;;5078901;28;19904;-84
2021/07/21 05:53:35;;;;;;;;;;;17.90;99.90;;;;;;5092633;28;19904;-82
2021/07/21 05:56:00;;;;;;;;;;;18.10;99.90;;;;;;5074859;28;19915;-85
2021/07/21 05:58:26;;;;;;;15.73;5.15;;;18.40;99.90;;;;;;5073943;28;20439;-83
2021/07/21 06:00:51;;;;;;;;;;;18.70;99.90;;;;;;5093137;28;20028;-84
2021/07/21 06:03:20;;;;;;;;;;;18.90;99.90;;;;;;5093617;28;19912;-85
2021/07/21 06:05:45;;;;;;;;;;;18.90;99.90;;;;;;5076696;28;20299;-83
2021/07/21 06:08:11;;;;;;;;;;;19.00;99.90;;;;;;5075458;28;19908;-84
2021/07/21 06:10:36;;;;;;;13.80;5.95;;;19.20;99.90;;;;;;5075986;28;20271;-84
2021/07/21 06:13:02;;;;;;;9.40;5.35;;;19.30;99.90;;;;;;5075278;28;20064;-84
2021/07/21 06:15:29;;;;;;;14.57;6.43;;;19.60;99.90;;;;;;5077117;28;20486;-83
2021/07/21 06:17:55;;;;;;;10.02;6.18;;;19.80;99.90;;;;;;5078120;28;20024;-84
2021/07/21 06:20:20;;;;;;;9.90;4.95;;;19.90;99.90;;;;;;5075860;28;19954;-83
2021/07/21 06:22:46;;;;;;;;;;;20.20;99.90;;;;;;5077056;28;20354;-83
2021/07/21 06:25:12;;;;;;;;;;;20.20;99.90;;;;;;5076609;28;19950;-83
2021/07/21 06:27:38;;;;;;;;;;;20.40;99.90;;;;;;5077508;28;19908;-86
2021/07/21 06:30:06;;;;;;;;;;;20.50;99.90;;;;;;5080668;28;19953;-85
2021/07/21 06:32:35;;;;;;;7.70;5.50;;;20.70;99.90;;;;;;5084896;28;19919;-84
2021/07/21 06:35:02;;;;;;;9.77;4.88;;;20.80;99.90;;;;;;5096856;28;20020;-84
2021/07/21 06:37:28;;;;;;;8.82;5.40;;;21.10;99.90;;;;;;5082508;28;20023;-84
2021/07/21 06:39:53;;;;;;;13.73;5.43;;;21.10;99.90;;;;;;5091739;28;20104;-83
2021/07/21 06:42:19;;;;;;;10.33;5.57;;;21.20;99.90;;;;;;5099906;28;20015;-84
2021/07/21 06:44:44;;;;;;;;;;;21.10;99.90;;;;;;5086707;28;19953;-84
2021/07/21 06:47:10;;;;;;;;;;;21.50;99.90;;;;;;5080556;28;19911;-84
2021/07/21 06:49:35;;;;;;;;;;;21.90;99.90;;;;;;5081333;28;19911;-86
2021/07/21 06:52:00;;;;;;;;;;;22.30;99.90;;;;;;5079741;28;20312;-85
2021/07/21 06:54:26;;;;;;;;;;;22.80;99.90;;;;;;5079869;28;19908;-83
2021/07/21 06:56:51;;;;;;;;;;;22.60;99.90;;;;;;5081423;28;19908;-85
2021/07/21 06:59:17;;;;;;;11.10;6.10;;;22.30;99.90;;;;;;5100492;28;19908;-87
2021/07/21 07:01:42;;;;;;;9.52;4.68;;;22.30;99.90;;;;;;5092182;28;20402;-84
2021/07/21 07:04:08;;;;;;;10.70;5.10;;;22.70;99.90;;;;;;5074225;28;20403;-83
2021/07/21 07:06:34;;;;;;;;;;;22.60;99.90;;;;;;5086224;28;19908;-82
2021/07/21 07:08:59;;;;;;;;;;;22.70;99.90;;;;;;5094391;28;19904;-83
2021/07/21 07:11:25;;;;;;;;;;;22.90;99.90;;;;;;5094641;28;19904;-84
2021/07/21 07:13:50;;;;;;;;;;;23.00;99.90;;;;;;5094957;28;19904;-85
2021/07/21 07:16:15;;;;;;;;;;;23.10;99.90;;;;;;5094852;28;19907;-85
2021/07/21 07:18:41;;;;;;;;;;;23.10;99.90;;;;;;5095059;28;20362;-82
2021/07/21 07:21:06;;;;;;;;;;;23.10;99.90;;;;;;5094652;28;20034;-84
2021/07/21 07:23:32;;;;;;;;;;;23.60;99.90;;;;;;5095273;28;19903;-83
2021/07/21 07:25:58;;;;;;;;;;;23.90;99.90;;;;;;5095249;28;19915;-85
2021/07/21 07:28:24;;;;;;;;;;;23.70;99.90;;;;;;5091086;28;19912;-83
2021/07/21 07:30:49;;;;;;;;;;;23.70;99.90;;;;;;5084916;28;20290;-84
2021/07/21 07:33:14;;;;;;;;;;;23.80;99.90;;;;;;5087767;28;19943;-83
2021/07/21 07:35:40;;;;;;;;;;;23.50;99.90;;;;;;5077653;28;19908;-83
2021/07/21 07:38:11;;;;;;;;;;;23.70;99.90;;;;;;5087634;28;19915;-83
2021/07/21 07:40:36;;;;;;;;;;;23.60;99.90;;;;;;5103675;28;19981;-86
2021/07/21 07:43:02;;;;;;;;;;;23.90;99.90;;;;;;5086310;28;20351;-84
2021/07/21 07:45:27;;;;;;;;;;;24.20;99.90;;;;;;5084699;28;19969;-87
2021/07/21 07:47:53;;;;;;;;;;;24.00;99.90;;;;;;5085800;28;19912;-84
2021/07/21 07:50:18;;;;;;;;;;;24.00;99.90;;;;;;5087181;28;19912;-83
2021/07/21 07:52:43;;;;;;;;;;;24.20;99.90;;;;;;5085122;28;19908;-84
2021/07/21 07:55:09;;;;;;;;;;;24.40;99.90;;;;;;5087463;28;19950;-84
2021/07/21 07:57:35;;;;;;;;;;;24.30;99.90;;;;;;5096784;28;20475;-83
2021/07/21 08:00:00;;;;;;;;;;;24.40;99.90;;;;;;5096887;28;19930;-84
2021/07/21 08:02:26;;;;;;;;;;;24.50;99.90;;;;;;5098806;28;19908;-83
2021/07/21 08:04:51;;;;;;;;;;;24.90;99.90;;;;;;5097776;28;19933;-84
2021/07/21 08:07:17;;;;;;;;;;;24.90;99.90;;;;;;5114293;28;19927;-87
2021/07/21 08:09:42;;;;;;;;;;;25.00;99.90;;;;;;5096644;28;19914;-84
2021/07/21 08:12:08;;;;;;;;;;;25.20;99.90;;;;;;5114181;28;20286;-86
2021/07/21 08:14:33;;;;;;;;;;;25.20;99.90;;;;;;5095999;28;20000;-86
2021/07/21 08:16:59;;;;;;;;;;;25.10;99.90;;;;;;5090763;28;19919;-87
2021/07/21 08:19:25;;;;;;;;;;;25.20;99.90;;;;;;5076617;28;19913;-85
2021/07/21 08:21:51;;;;;;;;;;;25.00;99.90;;;;;;5090429;28;19926;-85
2021/07/21 08:24:17;;;;;;;;;;;24.90;99.90;;;;;;5096642;28;19911;-86
2021/07/21 08:26:43;;;;;;;;;;;25.10;99.90;;;;;;5096010;28;19994;-87
2021/07/21 08:29:09;;;;;;;;;;;24.60;99.90;;;;;;5095956;28;19973;-86
2021/07/21 08:31:35;;;;;;;;;;;25.10;99.90;;;;;;5096058;28;19991;-83
2021/07/21 08:34:01;;;;;;;;;;;24.60;99.90;;;;;;5095102;28;20443;-86
2021/07/21 08:36:28;;;;;;;;;;;24.90;99.90;;;;;;5096698;28;19911;-86
2021/07/21 08:38:53;;;;;;;;;;;25.20;99.90;;;;;;5096415;28;19961;-86
2021/07/21 08:41:19;;;;;;;;;;;26.00;99.90;;;;;;5095569;28;19907;-85
2021/07/21 08:43:44;;;;;;;;;;;26.00;99.90;;;;;;5095284;28;19904;-86
2021/07/21 08:46:10;;;;;;;;;;;26.60;99.90;;;;;;5095653;28;20347;-85
2021/07/21 08:48:35;;;;;;;;;;;26.50;99.90;;;;;;5095719;28;19929;-85
2021/07/21 08:51:02;;;;;;;;;;;26.20;99.90;;;;;;5096033;28;20365;-85
2021/07/21 08:53:29;;;;;;;;;;;26.10;99.90;;;;;;5095772;28;19953;-86
2021/07/21 08:55:54;;;;;;;;;;;26.00;99.90;;;;;;5095569;28;19908;-84
2021/07/21 08:58:20;;;;;;;;;;;26.10;99.90;;;;;;5095077;28;19904;-85
2021/07/21 09:00:49;;;;;;;;;;;26.10;99.90;;;;;;5113924;28;19990;-86
2021/07/21 09:03:14;;;;;;;;;;;26.20;99.90;;;;;;5095566;28;19914;-83
2021/07/21 09:05:40;;;;;;;;;;;25.60;99.90;;;;;;5113693;28;19912;-84
2021/07/21 09:08:05;;;;;;;;;;;25.90;99.90;;;;;;5104017;28;19953;-86
2021/07/21 09:10:31;;;;;;;;;;;26.20;99.90;;;;;;5112641;28;19952;-85
2021/07/21 09:12:56;;;;;;;;;;;26.30;99.90;;;;;;5111530;28;19949;-84
2021/07/21 09:15:22;;;;;;;;;;;26.30;99.90;;;;;;5112295;28;20256;-86
2021/07/21 09:17:58;;;;;;;;;;;26.10;99.90;;;;;;5112963;28;19908;-85
2021/07/21 09:20:25;;;;;;;;;;;26.00;99.90;;;;;;5111332;28;19910;-85
2021/07/21 09:22:54;;;;;;;;;;;26.00;99.90;;;;;;5112028;28;19904;-84
2021/07/21 09:25:28;;;;;;;;;;;26.10;99.90;;;;;;5111936;28;19910;-85
2021/07/21 09:27:55;;;;;;;;;;;26.40;99.90;;;;;;5108784;28;19950;-85
2021/07/21 09:30:22;;;;;;;;;;;26.20;99.90;;;;;;5095260;28;20271;-87
2021/07/21 09:32:50;;;;;;;;;;;26.50;99.90;;;;;;5085955;28;20295;-85
2021/07/21 09:35:15;;;;;;;;;;;26.40;99.40;;;;;;5074540;28;19915;-85
2021/07/21 09:37:41;;;;;;;;;;;25.80;99.90;;;;;;5075126;28;19908;-84
2021/07/21 09:40:07;;;;;;;;;;;26.00;99.80;;;;;;5074188;28;19904;-85
2021/07/21 09:42:34;;;;;;;;;;;26.20;99.90;;;;;;5073577;28;19904;-84
2021/07/21 09:45:06;;;;;;;;;;;26.10;99.60;;;;;;5075221;28;19947;-85
2021/07/21 09:47:31;;;;;;;;;;;26.40;99.60;;;;;;5073951;28;19962;-85
2021/07/21 09:50:14;;;;;;;;;;;26.20;99.00;;;;;;5091952;28;19947;-84
2021/07/21 09:52:46;;;;;;;;;;;26.10;99.90;;;;;;5073882;28;19912;-85
2021/07/21 09:55:15;;;;;;;;;;;26.70;99.90;;;;;;5074486;28;19947;-84
2021/07/21 09:57:41;;;;;;;;;;;26.80;99.20;;;;;;5076944;28;20298;-85
2021/07/21 10:00:16;;;;;;;;;;;27.10;97.10;;;;;;5076015;28;19904;-85
2021/07/21 10:02:42;;;;;;;;;;;26.90;98.70;;;;;;5076650;28;19911;-83
2021/07/21 10:05:07;;;;;;;;;;;26.80;98.10;;;;;;5104519;28;19911;-84
2021/07/21 10:10:12;;;;;;;;;;;27.70;97.90;;;;;;5103299;28;20041;-86
2021/07/21 10:12:38;;;;;;;;;;;27.40;97.70;;;;;;5084642;28;19943;-86
2021/07/21 10:15:04;;;;;;;;;;;27.10;97.00;;;;;;5085663;28;20297;-83
2021/07/21 10:17:29;;;;;;;;;;;27.00;97.50;;;;;;5085265;28;19915;-85
2021/07/21 10:19:55;;;;;;;;;;;26.80;98.10;;;;;;5083687;28;20006;-82
2021/07/21 10:22:20;;;;;;;;;;;27.20;99.40;;;;;;5102668;28;19912;-82
2021/07/21 10:24:46;;;;;;;;;;;27.20;99.40;;;;;;5084938;28;20450;-83
2021/07/21 10:27:12;;;;;;;;;;;27.30;98.70;;;;;;5084604;28;19904;-86
2021/07/21 10:29:37;;;;;;;;;;;27.50;97.60;;;;;;5086822;28;19910;-85
2021/07/21 10:32:03;;;;;;;;;;;27.00;97.30;;;;;;5083939;28;20416;-86
2021/07/21 10:34:29;;;;;;;;;;;26.80;97.60;;;;;;5084799;28;20308;-85
2021/07/21 10:36:54;;;;;;;;;;;26.70;96.50;;;;;;5084609;28;19962;-87
2021/07/21 10:39:24;;;;;;;;;;;26.70;95.10;;;;;;5083437;28;20474;-86
2021/07/21 10:41:50;;;;;;;;;;;27.30;95.90;;;;;;5083139;28;19907;-87
2021/07/21 10:44:16;;;;;;;;;;;27.10;96.20;;;;;;5083613;28;19904;-85
2021/07/21 10:46:49;;;;;;;;;;;27.70;96.90;;;;;;5082466;28;19962;-86
2021/07/21 10:49:22;;;;;;;;;;;27.60;94.40;;;;;;5085475;28;20272;-84
2021/07/21 10:54:54;;;;;;;;;;;29.00;96.00;;;;;;5103566;28;19904;-87
2021/07/21 11:00:13;;;;;;;;;;;29.60;96.10;;;;;;5105239;28;19911;-84
2021/07/21 11:02:40;;;;;;;;;;;28.30;93.00;;;;;;5087582;28;19946;-85
2021/07/21 11:05:09;;;;;;;;;;;28.20;95.80;;;;;;5082978;28;19991;-85
2021/07/21 11:07:47;;;;;;;;;;;28.00;93.80;;;;;;5086140;28;19953;-86
2021/07/21 11:10:13;;;;;;;;;;;28.00;93.10;;;;;;5104598;28;19903;-86
2021/07/21 11:12:47;;;;;;;;;;;27.70;95.50;;;;;;5087151;28;19907;-84
2021/07/21 11:15:32;;;;;;;;;;;27.40;93.80;;;;;;5089023;28;20002;-86
2021/07/21 11:18:16;;;;;;;7.75;4.65;;;27.50;93.40;;;;;;5085978;28;20018;-85
2021/07/21 11:21:04;;;;;;;8.77;5.85;;;27.40;94.70;;;;;;5100507;28;20030;-85
2021/07/21 11:23:47;;;;;;;6.22;4.35;;;27.40;93.80;;;;;;5081289;28;20077;-86
2021/07/21 11:26:31;;;;;;;5.85;4.43;;;27.80;94.60;;;;;;5089544;28;20027;-86
2021/07/21 11:28:59;;;;;;;6.43;4.15;;;27.80;92.90;;;;;;5092952;28;20066;-85
2021/07/21 11:31:56;;;;;;;7.20;4.80;;;27.90;93.40;;;;;;5086288;28;20455;-85
2021/07/21 11:34:28;;;;;;;7.47;4.53;;;28.60;95.00;;;;;;5091085;28;20012;-83
2021/07/21 11:37:17;;;;;;;5.30;3.90;;;28.60;92.00;;;;;;5091656;28;20098;-81
2021/07/21 11:39:54;;;;;;;5.38;4.18;;;28.30;92.40;;;;;;5116091;28;20046;-81
2021/07/21 11:45:04;;;;;;;7.75;4.95;;;27.90;94.10;;;;;;5122297;28;20058;-81
2021/07/21 11:47:30;;;;;;;;;;;27.60;93.60;;;;;;5103774;28;20114;-84
2021/07/21 11:49:55;;;;;;;;;;;27.20;95.60;;;;;;5105947;28;20006;-83
2021/07/21 11:52:23;;;;;;;;;;;27.70;96.00;;;;;;5104208;28;19961;-80
2021/07/21 11:54:49;;;;;;;;;;;27.60;93.00;;;;;;5095417;28;19965;-82
2021/07/21 11:57:15;;;;;;;;;;;27.80;95.80;;;;;;5099366;28;19912;-80
2021/07/21 11:59:41;;;;;;;;;;;27.90;94.70;;;;;;5118090;28;19911;-82
2021/07/21 12:02:07;;;;;;;;;;;28.00;94.00;;;;;;5092777;28;19903;-80
2021/07/21 12:04:32;;;;;;;;;;;27.90;91.80;;;;;;5094608;28;20327;-82
2021/07/21 12:06:58;;;;;;;;;;;28.00;96.00;;;;;;5094288;28;19914;-82
2021/07/21 12:09:27;;;;;;;;;;;27.70;92.30;;;;;;5111004;28;19904;-83
2021/07/21 12:11:54;;;;;;;;;;;27.80;95.30;;;;;;5092657;28;19903;-80
2021/07/21 12:14:22;;;;;;;;;;;27.80;93.70;;;;;;5089943;28;20338;-81
2021/07/21 12:16:47;;;;;;;;;;;27.60;92.80;;;;;;5093840;28;19908;-80
2021/07/21 12:19:13;;;;;;;;;;;27.70;92.40;;;;;;5091898;28;19904;-82
2021/07/21 12:21:38;;;;;;;;;;;28.10;93.90;;;;;;5092384;28;19915;-82
2021/07/21 12:24:04;;;;;;;;;;;28.40;92.70;;;;;;5090784;28;19911;-81
2021/07/21 12:26:40;;;;;;;;;;;28.30;94.20;;;;;;5092511;28;20416;-79
2021/07/21 12:29:06;;;;;;;;;;;28.20;91.70;;;;;;5084174;28;19904;-83
2021/07/21 12:31:31;;;;;;;;;;;28.40;92.90;;;;;;5099909;28;19971;-82
2021/07/21 12:34:10;;;;;;;;;;;28.10;92.50;;;;;;5111605;27;19904;-80
2021/07/21 12:36:36;;;;;;;;;;;28.00;93.20;;;;;;5121918;27;19907;-83
2021/07/21 12:39:02;;;;;;;;;;;27.90;91.80;;;;;;5123160;27;20077;-83
2021/07/21 12:41:28;;;;;;;;;;;28.00;93.40;;;;;;5140507;27;19954;-81
2021/07/21 12:43:54;;;;;;;;;;;28.00;93.30;;;;;;5122136;27;19910;-83
2021/07/21 12:46:19;;;;;;;;;;;27.80;93.50;;;;;;5122967;27;19968;-83
2021/07/21 12:48:45;;;;;;;;;;;27.60;91.50;;;;;;5123497;27;19903;-83
2021/07/21 12:51:11;;;;;;;;;;;27.90;91.80;;;;;;5123170;27;19903;-81
2021/07/21 12:53:36;;;;;;;;;;;27.80;90.50;;;;;;5123376;27;19903;-80
2021/07/21 12:56:02;;;;;;;;;;;27.80;92.20;;;;;;5123253;27;19998;-81
2021/07/21 12:58:27;;;;;;;;;;;28.00;91.60;;;;;;5123611;27;19903;-81
2021/07/21 13:00:56;;;;;;;;;;;28.00;92.40;;;;;;5123781;27;19909;-85
2021/07/21 13:03:23;;;;;;;;;;;28.10;91.60;;;;;;5113965;28;19969;-83
2021/07/21 13:05:49;;;;;;;;;;;28.00;90.20;;;;;;5121632;28;20370;-83
2021/07/21 13:08:26;;;;;;;;;;;28.20;90.80;;;;;;5102545;28;19904;-81
2021/07/21 13:11:07;;;;;;;;;;;27.90;90.10;;;;;;5094612;28;20325;-83
2021/07/21 13:13:33;;;;;;;;;;;27.80;91.40;;;;;;5104352;28;19911;-83
2021/07/21 13:16:02;;;;;;;;;;;27.80;89.60;;;;;;5104416;28;19916;-83
2021/07/21 13:18:37;;;;;;;;;;;27.70;90.30;;;;;;5089342;28;19975;-83
2021/07/21 13:21:21;;;;;;;;;;;28.10;91.80;;;;;;5083470;28;19911;-83
2021/07/21 13:23:47;;;;;;;;;;;28.40;86.80;;;;;;5084089;28;20375;-83
2021/07/21 13:26:13;;;;;;;;;;;28.30;87.90;;;;;;5083358;28;19904;-82
2021/07/21 13:28:50;;;;;;;;;;;28.70;91.10;;;;;;5083003;28;19973;-83
2021/07/21 13:31:17;;;;;;;;;;;28.70;92.10;;;;;;5101501;28;19914;-80
2021/07/21 13:33:43;;;;;;;;;;;28.60;91.50;;;;;;5100571;28;19904;-82
2021/07/21 13:36:13;;;;;;;;;;;28.10;88.00;;;;;;5083981;28;20298;-81
2021/07/21 13:38:47;;;;;;;;;;;28.00;89.10;;;;;;5083449;28;19969;-83
2021/07/21 13:41:13;;;;;;;;;;;27.90;90.80;;;;;;5084686;28;19910;-81
2021/07/21 13:43:38;;;;;;;;;;;28.20;91.50;;;;;;5082957;28;19998;-83
2021/07/21 13:46:23;;;;;;;;;;;28.20;90.50;;;;;;5083037;28;19919;-80
2021/07/21 13:48:56;;;;;;;;;;;27.90;90.50;;;;;;5101848;28;19907;-82
2021/07/21 13:51:26;;;;;;;;;;;28.10;86.90;;;;;;5083228;28;19908;-82
2021/07/21 13:53:52;;;;;;;;;;;28.30;88.50;;;;;;5083786;28;19948;-80
2021/07/21 13:56:17;;;;;;;;;;;28.30;89.40;;;;;;5083434;28;19919;-82
2021/07/21 13:58:43;;;;;;;;;;;28.70;88.90;;;;;;5101618;28;19911;-82
2021/07/21 14:01:11;;;;;;;;;;;28.70;88.80;;;;;;5083656;28;20018;-79
2021/07/21 14:03:44;;;;;;;;;;;28.70;92.20;;;;;;5084026;28;19904;-83
2021/07/21 14:06:09;;;;;;;;;;;28.30;87.20;;;;;;5085018;28;19949;-83
2021/07/21 14:08:34;;;;;;;;;;;28.30;86.70;;;;;;5084624;28;19994;-83
2021/07/21 14:11:00;;;;;;;;;;;28.00;88.90;;;;;;5103191;28;19904;-85
2021/07/21 14:13:25;;;;;;;;;;;28.10;90.30;;;;;;5084844;28;19910;-82
2021/07/21 14:15:51;;;;;;;;;;;28.20;84.60;;;;;;5084275;28;19904;-81
2021/07/21 14:18:16;;;;;;;;;;;27.90;86.50;;;;;;5084815;28;19911;-83
2021/07/21 14:20:42;;;;;;;;;;;27.40;84.40;;;;;;5084617;28;19904;-83
2021/07/21 14:23:07;;;;;;;;;;;27.60;86.30;;;;;;5082995;28;19904;-80
2021/07/21 14:25:34;;;;;;;;;;;27.80;87.30;;;;;;5086355;28;19904;-82
2021/07/21 14:28:00;;;;;;;;;;;27.90;90.00;;;;;;5106544;28;19908;-84
2021/07/21 14:30:26;;;;;;;;;;;28.30;89.40;;;;;;5086834;28;20327;-84
2021/07/21 14:32:51;;;;;;;;;;;28.30;85.30;;;;;;5086708;28;19911;-85
2021/07/21 14:35:17;;;;;;;;;;;28.20;86.00;;;;;;5092454;28;19926;-83